sensor_id;sensor_type;location;lat;lon;timestamp;P1;durP1;ratioP1;P2;durP2;ratioP2
39344;SDS011;25061;51.954;6.996;2023-01-24T00:00:34;21.27;;;9.40;;
39344;SDS011;25061;51.954;6.996;2023-01-24T00:03:00;20.08;;;9.60;;
39344;SDS011;25061;51.954;6.996;2023-01-24T00:05:26;21.30;;;9.65;;
39344;SDS011;25061;51.954;6.996;2023-01-24T00:07:51;19.23;;;8.95;;
39344;SDS011;25061;51.954;6.996;2023-01-24T00:10:17;18.42;;;8.73;;
39344;SDS011;25061;51.954;6.996;2023-01-24T00:12:43;20.33;;;8.63;;
39344;SDS011;25061;51.954;6.996;2023-01-24T00:15:09;17.48;;;8.25;;
39344;SDS011;25061;51.954;6.996;2023-01-24T00:17:35;15.15;;;7.28;;
39344;SDS011;25061;51.954;6.996;2023-01-24T00:20:01;14.73;;;7.35;;
39344;SDS011;25061;51.954;6.996;2023-01-24T00:22:29;14.70;;;6.38;;
39344;SDS011;25061;51.954;6.996;2023-01-24T00:24:55;13.13;;;6.57;;
39344;SDS011;25061;51.954;6.996;2023-01-24T00:27:20;13.48;;;6.10;;
39344;SDS011;25061;51.954;6.996;2023-01-24T00:29:46;15.23;;;7.28;;
39344;SDS011;25061;51.954;6.996;2023-01-24T00:32:11;13.55;;;6.35;;
39344;SDS011;25061;51.954;6.996;2023-01-24T00:34:37;13.35;;;5.95;;
39344;SDS011;25061;51.954;6.996;2023-01-24T00:37:02;13.57;;;6.13;;
39344;SDS011;25061;51.954;6.996;2023-01-24T00:39:28;17.40;;;5.90;;
39344;SDS011;25061;51.954;6.996;2023-01-24T00:41:53;12.70;;;6.38;;
39344;SDS011;25061;51.954;6.996;2023-01-24T00:44:19;13.35;;;6.15;;
39344;SDS011;25061;51.954;6.996;2023-01-24T00:46:44;15.00;;;7.53;;
39344;SDS011;25061;51.954;6.996;2023-01-24T00:49:10;15.10;;;6.55;;
39344;SDS011;25061;51.954;6.996;2023-01-24T00:51:35;14.77;;;7.07;;
39344;SDS011;25061;51.954;6.996;2023-01-24T00:54:01;13.68;;;6.20;;
39344;SDS011;25061;51.954;6.996;2023-01-24T00:56:26;13.70;;;6.38;;
39344;SDS011;25061;51.954;6.996;2023-01-24T00:58:52;13.07;;;6.10;;
39344;SDS011;25061;51.954;6.996;2023-01-24T01:01:19;13.27;;;6.07;;
39344;SDS011;25061;51.954;6.996;2023-01-24T01:03:45;14.20;;;6.35;;
39344;SDS011;25061;51.954;6.996;2023-01-24T01:06:12;16.13;;;6.90;;
39344;SDS011;25061;51.954;6.996;2023-01-24T01:08:41;13.90;;;6.80;;
39344;SDS011;25061;51.954;6.996;2023-01-24T01:11:07;13.20;;;6.03;;
39344;SDS011;25061;51.954;6.996;2023-01-24T01:13:32;16.08;;;7.00;;
39344;SDS011;25061;51.954;6.996;2023-01-24T01:18:28;14.38;;;6.68;;
39344;SDS011;25061;51.954;6.996;2023-01-24T01:20:54;14.57;;;6.90;;
39344;SDS011;25061;51.954;6.996;2023-01-24T01:23:19;14.40;;;6.55;;
39344;SDS011;25061;51.954;6.996;2023-01-24T01:25:45;15.13;;;7.13;;
39344;SDS011;25061;51.954;6.996;2023-01-24T01:28:10;13.27;;;6.72;;
39344;SDS011;25061;51.954;6.996;2023-01-24T01:30:36;14.38;;;6.75;;
39344;SDS011;25061;51.954;6.996;2023-01-24T01:33:01;15.68;;;7.68;;
39344;SDS011;25061;51.954;6.996;2023-01-24T01:35:27;14.07;;;6.68;;
39344;SDS011;25061;51.954;6.996;2023-01-24T01:37:52;14.05;;;6.63;;
39344;SDS011;25061;51.954;6.996;2023-01-24T01:40:18;15.80;;;7.05;;
39344;SDS011;25061;51.954;6.996;2023-01-24T01:42:53;15.55;;;6.55;;
39344;SDS011;25061;51.954;6.996;2023-01-24T01:45:30;14.18;;;6.95;;
39344;SDS011;25061;51.954;6.996;2023-01-24T01:47:56;15.35;;;7.15;;
39344;SDS011;25061;51.954;6.996;2023-01-24T01:50:25;14.82;;;7.05;;
39344;SDS011;25061;51.954;6.996;2023-01-24T01:52:54;14.85;;;7.65;;
39344;SDS011;25061;51.954;6.996;2023-01-24T01:55:22;14.65;;;6.93;;
39344;SDS011;25061;51.954;6.996;2023-01-24T01:57:52;15.65;;;7.15;;
39344;SDS011;25061;51.954;6.996;2023-01-24T02:00:19;14.85;;;7.10;;
39344;SDS011;25061;51.954;6.996;2023-01-24T02:02:55;14.68;;;7.53;;
39344;SDS011;25061;51.954;6.996;2023-01-24T02:05:45;16.23;;;7.70;;
39344;SDS011;25061;51.954;6.996;2023-01-24T02:08:12;14.43;;;7.47;;
39344;SDS011;25061;51.954;6.996;2023-01-24T02:10:43;15.18;;;7.43;;
39344;SDS011;25061;51.954;6.996;2023-01-24T02:13:27;16.60;;;8.13;;
39344;SDS011;25061;51.954;6.996;2023-01-24T02:15:53;16.27;;;7.35;;
39344;SDS011;25061;51.954;6.996;2023-01-24T02:18:28;15.75;;;7.50;;
39344;SDS011;25061;51.954;6.996;2023-01-24T02:20:55;15.20;;;7.30;;
39344;SDS011;25061;51.954;6.996;2023-01-24T02:23:33;15.27;;;7.28;;
39344;SDS011;25061;51.954;6.996;2023-01-24T02:26:28;15.82;;;7.53;;
39344;SDS011;25061;51.954;6.996;2023-01-24T02:28:59;15.43;;;7.07;;
39344;SDS011;25061;51.954;6.996;2023-01-24T02:34:19;17.98;;;7.70;;
39344;SDS011;25061;51.954;6.996;2023-01-24T02:36:44;14.63;;;6.80;;
39344;SDS011;25061;51.954;6.996;2023-01-24T02:39:14;14.95;;;7.03;;
39344;SDS011;25061;51.954;6.996;2023-01-24T02:44:19;16.50;;;7.80;;
39344;SDS011;25061;51.954;6.996;2023-01-24T02:46:50;17.05;;;8.00;;
39344;SDS011;25061;51.954;6.996;2023-01-24T02:49:16;16.35;;;8.35;;
39344;SDS011;25061;51.954;6.996;2023-01-24T02:51:42;15.00;;;7.65;;
39344;SDS011;25061;51.954;6.996;2023-01-24T02:54:26;16.83;;;8.15;;
39344;SDS011;25061;51.954;6.996;2023-01-24T02:56:52;16.25;;;7.28;;
39344;SDS011;25061;51.954;6.996;2023-01-24T02:59:36;17.67;;;8.15;;
39344;SDS011;25061;51.954;6.996;2023-01-24T03:02:01;18.10;;;8.32;;
39344;SDS011;25061;51.954;6.996;2023-01-24T03:04:27;15.32;;;7.90;;
39344;SDS011;25061;51.954;6.996;2023-01-24T03:06:52;18.75;;;8.07;;
39344;SDS011;25061;51.954;6.996;2023-01-24T03:09:18;16.73;;;8.50;;
39344;SDS011;25061;51.954;6.996;2023-01-24T03:11:48;16.30;;;7.22;;
39344;SDS011;25061;51.954;6.996;2023-01-24T03:14:15;16.33;;;7.85;;
39344;SDS011;25061;51.954;6.996;2023-01-24T03:17:00;17.00;;;8.57;;
39344;SDS011;25061;51.954;6.996;2023-01-24T03:19:44;18.85;;;8.18;;
39344;SDS011;25061;51.954;6.996;2023-01-24T03:22:28;16.95;;;8.00;;
39344;SDS011;25061;51.954;6.996;2023-01-24T03:25:13;17.33;;;7.82;;
39344;SDS011;25061;51.954;6.996;2023-01-24T03:28:02;14.80;;;7.25;;
39344;SDS011;25061;51.954;6.996;2023-01-24T03:30:50;15.82;;;7.68;;
39344;SDS011;25061;51.954;6.996;2023-01-24T03:33:34;15.82;;;7.18;;
39344;SDS011;25061;51.954;6.996;2023-01-24T03:36:18;15.13;;;7.20;;
39344;SDS011;25061;51.954;6.996;2023-01-24T03:38:44;15.27;;;6.50;;
39344;SDS011;25061;51.954;6.996;2023-01-24T03:41:29;16.90;;;7.97;;
39344;SDS011;25061;51.954;6.996;2023-01-24T03:43:55;15.93;;;7.45;;
39344;SDS011;25061;51.954;6.996;2023-01-24T03:46:20;16.67;;;7.90;;
39344;SDS011;25061;51.954;6.996;2023-01-24T03:48:46;17.85;;;8.50;;
39344;SDS011;25061;51.954;6.996;2023-01-24T03:51:11;18.05;;;8.48;;
39344;SDS011;25061;51.954;6.996;2023-01-24T03:53:56;16.25;;;7.18;;
39344;SDS011;25061;51.954;6.996;2023-01-24T03:56:21;16.73;;;7.47;;
39344;SDS011;25061;51.954;6.996;2023-01-24T03:58:47;14.35;;;6.85;;
39344;SDS011;25061;51.954;6.996;2023-01-24T04:01:12;16.08;;;7.82;;
39344;SDS011;25061;51.954;6.996;2023-01-24T04:03:38;17.95;;;8.05;;
39344;SDS011;25061;51.954;6.996;2023-01-24T04:06:04;17.55;;;7.70;;
39344;SDS011;25061;51.954;6.996;2023-01-24T04:08:30;17.75;;;8.25;;
39344;SDS011;25061;51.954;6.996;2023-01-24T04:10:55;18.70;;;7.93;;
39344;SDS011;25061;51.954;6.996;2023-01-24T04:13:21;15.93;;;7.93;;
39344;SDS011;25061;51.954;6.996;2023-01-24T04:15:47;16.50;;;7.38;;
39344;SDS011;25061;51.954;6.996;2023-01-24T04:18:12;17.20;;;8.32;;
39344;SDS011;25061;51.954;6.996;2023-01-24T04:20:38;18.65;;;7.60;;
39344;SDS011;25061;51.954;6.996;2023-01-24T04:23:05;16.80;;;7.75;;
39344;SDS011;25061;51.954;6.996;2023-01-24T04:25:31;16.88;;;8.80;;
39344;SDS011;25061;51.954;6.996;2023-01-24T04:27:57;16.48;;;7.72;;
39344;SDS011;25061;51.954;6.996;2023-01-24T04:30:23;14.98;;;7.53;;
39344;SDS011;25061;51.954;6.996;2023-01-24T04:32:49;15.93;;;7.20;;
39344;SDS011;25061;51.954;6.996;2023-01-24T04:35:15;17.60;;;7.65;;
39344;SDS011;25061;51.954;6.996;2023-01-24T04:37:42;16.55;;;7.70;;
39344;SDS011;25061;51.954;6.996;2023-01-24T04:40:08;16.73;;;7.05;;
39344;SDS011;25061;51.954;6.996;2023-01-24T04:42:34;14.40;;;6.43;;
39344;SDS011;25061;51.954;6.996;2023-01-24T04:45:01;16.27;;;7.70;;
39344;SDS011;25061;51.954;6.996;2023-01-24T04:47:27;16.80;;;7.65;;
39344;SDS011;25061;51.954;6.996;2023-01-24T04:49:53;16.40;;;7.10;;
39344;SDS011;25061;51.954;6.996;2023-01-24T04:52:18;16.48;;;7.72;;
39344;SDS011;25061;51.954;6.996;2023-01-24T04:54:44;16.00;;;7.20;;
39344;SDS011;25061;51.954;6.996;2023-01-24T04:57:10;17.83;;;8.23;;
39344;SDS011;25061;51.954;6.996;2023-01-24T04:59:36;15.50;;;6.53;;
39344;SDS011;25061;51.954;6.996;2023-01-24T05:02:02;16.52;;;7.72;;
39344;SDS011;25061;51.954;6.996;2023-01-24T05:04:28;14.85;;;6.90;;
39344;SDS011;25061;51.954;6.996;2023-01-24T05:06:53;16.70;;;7.95;;
39344;SDS011;25061;51.954;6.996;2023-01-24T05:09:19;17.92;;;8.45;;
39344;SDS011;25061;51.954;6.996;2023-01-24T05:11:44;15.60;;;7.55;;
39344;SDS011;25061;51.954;6.996;2023-01-24T05:14:10;15.68;;;7.35;;
39344;SDS011;25061;51.954;6.996;2023-01-24T05:16:36;14.43;;;6.78;;
39344;SDS011;25061;51.954;6.996;2023-01-24T05:19:02;16.48;;;7.22;;
39344;SDS011;25061;51.954;6.996;2023-01-24T05:21:28;14.32;;;7.18;;
39344;SDS011;25061;51.954;6.996;2023-01-24T05:23:54;14.63;;;6.10;;
39344;SDS011;25061;51.954;6.996;2023-01-24T05:26:20;13.68;;;6.75;;
39344;SDS011;25061;51.954;6.996;2023-01-24T05:28:47;15.40;;;7.07;;
39344;SDS011;25061;51.954;6.996;2023-01-24T05:31:13;14.98;;;6.60;;
39344;SDS011;25061;51.954;6.996;2023-01-24T05:33:39;14.63;;;7.45;;
39344;SDS011;25061;51.954;6.996;2023-01-24T05:36:10;16.90;;;7.15;;
39344;SDS011;25061;51.954;6.996;2023-01-24T05:38:43;14.13;;;7.00;;
39344;SDS011;25061;51.954;6.996;2023-01-24T05:41:11;16.42;;;6.53;;
39344;SDS011;25061;51.954;6.996;2023-01-24T05:43:38;13.77;;;5.95;;
39344;SDS011;25061;51.954;6.996;2023-01-24T05:46:05;19.08;;;7.25;;
39344;SDS011;25061;51.954;6.996;2023-01-24T05:48:32;15.77;;;7.25;;
39344;SDS011;25061;51.954;6.996;2023-01-24T05:50:59;15.48;;;7.07;;
39344;SDS011;25061;51.954;6.996;2023-01-24T05:53:26;14.80;;;6.65;;
39344;SDS011;25061;51.954;6.996;2023-01-24T05:55:56;14.02;;;6.28;;
39344;SDS011;25061;51.954;6.996;2023-01-24T05:58:23;13.90;;;6.32;;
39344;SDS011;25061;51.954;6.996;2023-01-24T06:00:53;13.43;;;6.10;;
39344;SDS011;25061;51.954;6.996;2023-01-24T06:03:19;13.52;;;6.28;;
39344;SDS011;25061;51.954;6.996;2023-01-24T06:05:45;14.75;;;6.85;;
39344;SDS011;25061;51.954;6.996;2023-01-24T06:08:15;13.90;;;6.40;;
39344;SDS011;25061;51.954;6.996;2023-01-24T06:10:42;15.23;;;6.70;;
39344;SDS011;25061;51.954;6.996;2023-01-24T06:13:08;14.30;;;6.70;;
39344;SDS011;25061;51.954;6.996;2023-01-24T06:15:34;13.35;;;5.70;;
39344;SDS011;25061;51.954;6.996;2023-01-24T06:18:00;14.25;;;6.90;;
39344;SDS011;25061;51.954;6.996;2023-01-24T06:20:25;13.90;;;6.32;;
39344;SDS011;25061;51.954;6.996;2023-01-24T06:22:52;12.82;;;6.32;;
39344;SDS011;25061;51.954;6.996;2023-01-24T06:25:21;12.90;;;6.28;;
39344;SDS011;25061;51.954;6.996;2023-01-24T06:27:49;13.02;;;6.05;;
39344;SDS011;25061;51.954;6.996;2023-01-24T06:30:15;14.13;;;6.10;;
39344;SDS011;25061;51.954;6.996;2023-01-24T06:33:01;15.25;;;6.18;;
39344;SDS011;25061;51.954;6.996;2023-01-24T06:35:43;15.20;;;6.75;;
39344;SDS011;25061;51.954;6.996;2023-01-24T06:38:17;12.30;;;5.53;;
39344;SDS011;25061;51.954;6.996;2023-01-24T06:40:45;13.98;;;5.90;;
39344;SDS011;25061;51.954;6.996;2023-01-24T06:43:11;14.82;;;6.53;;
39344;SDS011;25061;51.954;6.996;2023-01-24T06:45:36;14.75;;;5.95;;
39344;SDS011;25061;51.954;6.996;2023-01-24T06:48:10;13.80;;;6.90;;
39344;SDS011;25061;51.954;6.996;2023-01-24T06:50:38;13.45;;;6.22;;
39344;SDS011;25061;51.954;6.996;2023-01-24T06:53:04;13.98;;;6.43;;
39344;SDS011;25061;51.954;6.996;2023-01-24T06:55:30;13.52;;;5.78;;
39344;SDS011;25061;51.954;6.996;2023-01-24T06:57:59;13.18;;;5.82;;
39344;SDS011;25061;51.954;6.996;2023-01-24T07:00:26;14.15;;;5.97;;
39344;SDS011;25061;51.954;6.996;2023-01-24T07:03:03;12.30;;;5.63;;
39344;SDS011;25061;51.954;6.996;2023-01-24T07:05:40;11.32;;;5.65;;
39344;SDS011;25061;51.954;6.996;2023-01-24T07:08:06;11.57;;;5.72;;
39344;SDS011;25061;51.954;6.996;2023-01-24T07:10:32;11.32;;;5.38;;
39344;SDS011;25061;51.954;6.996;2023-01-24T07:12:58;13.73;;;6.25;;
39344;SDS011;25061;51.954;6.996;2023-01-24T07:15:27;14.02;;;5.68;;
39344;SDS011;25061;51.954;6.996;2023-01-24T07:18:18;13.68;;;5.93;;
39344;SDS011;25061;51.954;6.996;2023-01-24T07:20:45;14.00;;;6.38;;
39344;SDS011;25061;51.954;6.996;2023-01-24T07:23:19;12.82;;;5.75;;
39344;SDS011;25061;51.954;6.996;2023-01-24T07:25:47;13.38;;;6.00;;
39344;SDS011;25061;51.954;6.996;2023-01-24T07:28:13;13.02;;;6.00;;
39344;SDS011;25061;51.954;6.996;2023-01-24T07:30:38;13.98;;;6.30;;
39344;SDS011;25061;51.954;6.996;2023-01-24T07:33:04;12.30;;;5.63;;
39344;SDS011;25061;51.954;6.996;2023-01-24T07:35:29;13.88;;;6.47;;
39344;SDS011;25061;51.954;6.996;2023-01-24T07:37:55;12.75;;;5.88;;
39344;SDS011;25061;51.954;6.996;2023-01-24T07:40:22;13.05;;;6.30;;
39344;SDS011;25061;51.954;6.996;2023-01-24T07:42:47;13.52;;;6.10;;
39344;SDS011;25061;51.954;6.996;2023-01-24T07:45:13;12.13;;;5.63;;
39344;SDS011;25061;51.954;6.996;2023-01-24T07:47:38;11.32;;;5.22;;
39344;SDS011;25061;51.954;6.996;2023-01-24T07:50:04;13.70;;;5.78;;
39344;SDS011;25061;51.954;6.996;2023-01-24T07:52:30;13.00;;;6.03;;
39344;SDS011;25061;51.954;6.996;2023-01-24T08:00:04;14.73;;;6.43;;
39344;SDS011;25061;51.954;6.996;2023-01-24T08:02:30;13.80;;;6.60;;
39344;SDS011;25061;51.954;6.996;2023-01-24T08:04:55;13.40;;;6.35;;
39344;SDS011;25061;51.954;6.996;2023-01-24T08:07:27;14.18;;;6.50;;
39344;SDS011;25061;51.954;6.996;2023-01-24T08:09:52;12.18;;;5.40;;
39344;SDS011;25061;51.954;6.996;2023-01-24T08:12:18;13.82;;;5.88;;
39344;SDS011;25061;51.954;6.996;2023-01-24T08:14:44;12.50;;;6.03;;
39344;SDS011;25061;51.954;6.996;2023-01-24T08:17:11;11.43;;;5.10;;
39344;SDS011;25061;51.954;6.996;2023-01-24T08:19:37;12.90;;;5.50;;
39344;SDS011;25061;51.954;6.996;2023-01-24T08:22:10;13.75;;;6.20;;
39344;SDS011;25061;51.954;6.996;2023-01-24T08:24:36;11.97;;;5.63;;
39344;SDS011;25061;51.954;6.996;2023-01-24T08:27:01;12.70;;;5.82;;
39344;SDS011;25061;51.954;6.996;2023-01-24T08:29:27;11.75;;;5.40;;
39344;SDS011;25061;51.954;6.996;2023-01-24T08:31:54;12.55;;;5.70;;
39344;SDS011;25061;51.954;6.996;2023-01-24T08:34:20;12.32;;;5.85;;
39344;SDS011;25061;51.954;6.996;2023-01-24T08:36:45;12.13;;;5.13;;
39344;SDS011;25061;51.954;6.996;2023-01-24T08:39:11;11.85;;;5.07;;
39344;SDS011;25061;51.954;6.996;2023-01-24T08:41:37;11.02;;;4.88;;
39344;SDS011;25061;51.954;6.996;2023-01-24T08:44:03;12.82;;;5.68;;
39344;SDS011;25061;51.954;6.996;2023-01-24T08:46:29;13.00;;;5.72;;
39344;SDS011;25061;51.954;6.996;2023-01-24T08:48:55;12.63;;;5.90;;
39344;SDS011;25061;51.954;6.996;2023-01-24T08:51:21;11.95;;;5.55;;
39344;SDS011;25061;51.954;6.996;2023-01-24T08:53:46;10.73;;;5.25;;
39344;SDS011;25061;51.954;6.996;2023-01-24T08:56:12;12.32;;;6.05;;
39344;SDS011;25061;51.954;6.996;2023-01-24T08:58:37;13.30;;;5.03;;
39344;SDS011;25061;51.954;6.996;2023-01-24T09:01:07;13.60;;;5.72;;
39344;SDS011;25061;51.954;6.996;2023-01-24T09:03:34;12.48;;;6.13;;
39344;SDS011;25061;51.954;6.996;2023-01-24T09:05:59;11.85;;;5.55;;
39344;SDS011;25061;51.954;6.996;2023-01-24T09:08:25;13.50;;;6.15;;
39344;SDS011;25061;51.954;6.996;2023-01-24T09:10:51;14.30;;;6.15;;
39344;SDS011;25061;51.954;6.996;2023-01-24T09:13:17;11.68;;;5.30;;
39344;SDS011;25061;51.954;6.996;2023-01-24T09:15:42;12.75;;;5.97;;
39344;SDS011;25061;51.954;6.996;2023-01-24T09:18:08;12.05;;;6.07;;
39344;SDS011;25061;51.954;6.996;2023-01-24T09:20:34;13.38;;;6.10;;
39344;SDS011;25061;51.954;6.996;2023-01-24T09:23:00;12.35;;;6.13;;
39344;SDS011;25061;51.954;6.996;2023-01-24T09:25:32;14.65;;;6.43;;
39344;SDS011;25061;51.954;6.996;2023-01-24T09:27:57;13.10;;;5.25;;
39344;SDS011;25061;51.954;6.996;2023-01-24T09:30:23;13.18;;;6.40;;
39344;SDS011;25061;51.954;6.996;2023-01-24T09:32:49;12.05;;;5.93;;
39344;SDS011;25061;51.954;6.996;2023-01-24T09:35:15;12.52;;;5.35;;
39344;SDS011;25061;51.954;6.996;2023-01-24T09:37:40;12.63;;;5.60;;
39344;SDS011;25061;51.954;6.996;2023-01-24T09:40:50;10.57;;;4.95;;
39344;SDS011;25061;51.954;6.996;2023-01-24T09:43:13;13.18;;;5.95;;
39344;SDS011;25061;51.954;6.996;2023-01-24T09:45:55;10.40;;;4.97;;
39344;SDS011;25061;51.954;6.996;2023-01-24T09:48:37;14.02;;;6.47;;
39344;SDS011;25061;51.954;6.996;2023-01-24T09:51:04;15.65;;;7.65;;
39344;SDS011;25061;51.954;6.996;2023-01-24T09:53:39;12.13;;;5.13;;
39344;SDS011;25061;51.954;6.996;2023-01-24T09:56:07;13.30;;;6.18;;
39344;SDS011;25061;51.954;6.996;2023-01-24T10:01:47;11.68;;;5.47;;
39344;SDS011;25061;51.954;6.996;2023-01-24T10:04:15;10.95;;;5.20;;
39344;SDS011;25061;51.954;6.996;2023-01-24T10:06:52;12.73;;;5.35;;
39344;SDS011;25061;51.954;6.996;2023-01-24T10:12:14;13.82;;;5.50;;
39344;SDS011;25061;51.954;6.996;2023-01-24T10:17:48;11.88;;;5.28;;
39344;SDS011;25061;51.954;6.996;2023-01-24T10:25:25;13.20;;;5.93;;
39344;SDS011;25061;51.954;6.996;2023-01-24T10:27:56;12.55;;;5.57;;
39344;SDS011;25061;51.954;6.996;2023-01-24T10:30:39;14.73;;;5.65;;
39344;SDS011;25061;51.954;6.996;2023-01-24T10:33:15;11.88;;;5.07;;
39344;SDS011;25061;51.954;6.996;2023-01-24T10:35:57;12.43;;;5.63;;
39344;SDS011;25061;51.954;6.996;2023-01-24T10:38:26;12.23;;;5.70;;
39344;SDS011;25061;51.954;6.996;2023-01-24T10:40:56;12.15;;;5.65;;
39344;SDS011;25061;51.954;6.996;2023-01-24T10:43:37;12.55;;;5.53;;
39344;SDS011;25061;51.954;6.996;2023-01-24T10:46:17;11.70;;;5.60;;
39344;SDS011;25061;51.954;6.996;2023-01-24T10:49:00;11.15;;;5.13;;
39344;SDS011;25061;51.954;6.996;2023-01-24T10:51:26;13.45;;;5.80;;
39344;SDS011;25061;51.954;6.996;2023-01-24T10:53:54;11.45;;;5.53;;
39344;SDS011;25061;51.954;6.996;2023-01-24T10:56:25;11.95;;;5.65;;
39344;SDS011;25061;51.954;6.996;2023-01-24T10:58:57;13.02;;;5.47;;
39344;SDS011;25061;51.954;6.996;2023-01-24T11:04:19;11.52;;;5.13;;
39344;SDS011;25061;51.954;6.996;2023-01-24T11:06:53;12.35;;;5.30;;
39344;SDS011;25061;51.954;6.996;2023-01-24T11:09:19;12.45;;;5.82;;
39344;SDS011;25061;51.954;6.996;2023-01-24T11:11:51;12.60;;;5.50;;
39344;SDS011;25061;51.954;6.996;2023-01-24T11:14:20;10.65;;;4.80;;
39344;SDS011;25061;51.954;6.996;2023-01-24T11:16:52;11.27;;;5.35;;
39344;SDS011;25061;51.954;6.996;2023-01-24T11:19:24;12.18;;;5.72;;
39344;SDS011;25061;51.954;6.996;2023-01-24T11:21:59;12.30;;;5.40;;
39344;SDS011;25061;51.954;6.996;2023-01-24T11:24:26;11.52;;;5.15;;
39344;SDS011;25061;51.954;6.996;2023-01-24T11:29:20;10.82;;;4.80;;
39344;SDS011;25061;51.954;6.996;2023-01-24T11:31:51;11.70;;;5.57;;
39344;SDS011;25061;51.954;6.996;2023-01-24T11:34:24;11.40;;;5.03;;
39344;SDS011;25061;51.954;6.996;2023-01-24T11:39:34;13.90;;;5.85;;
39344;SDS011;25061;51.954;6.996;2023-01-24T11:48:00;11.63;;;5.53;;
39344;SDS011;25061;51.954;6.996;2023-01-24T12:01:37;14.68;;;6.30;;
39344;SDS011;25061;51.954;6.996;2023-01-24T12:06:59;12.63;;;5.57;;
39344;SDS011;25061;51.954;6.996;2023-01-24T12:09:29;14.35;;;5.82;;
39344;SDS011;25061;51.954;6.996;2023-01-24T12:12:04;16.27;;;6.45;;
39344;SDS011;25061;51.954;6.996;2023-01-24T12:14:43;15.00;;;6.70;;
39344;SDS011;25061;51.954;6.996;2023-01-24T12:17:28;13.30;;;5.72;;
39344;SDS011;25061;51.954;6.996;2023-01-24T12:23:15;12.90;;;5.55;;
39344;SDS011;25061;51.954;6.996;2023-01-24T12:26:05;11.95;;;5.55;;
39344;SDS011;25061;51.954;6.996;2023-01-24T12:31:17;13.45;;;6.07;;
39344;SDS011;25061;51.954;6.996;2023-01-24T12:33:59;12.20;;;6.10;;
39344;SDS011;25061;51.954;6.996;2023-01-24T12:36:48;14.07;;;6.38;;
39344;SDS011;25061;51.954;6.996;2023-01-24T12:39:20;13.93;;;6.60;;
39344;SDS011;25061;51.954;6.996;2023-01-24T12:42:13;13.15;;;7.03;;
39344;SDS011;25061;51.954;6.996;2023-01-24T12:44:51;14.48;;;5.82;;
39344;SDS011;25061;51.954;6.996;2023-01-24T12:47:24;13.75;;;6.88;;
39344;SDS011;25061;51.954;6.996;2023-01-24T12:52:42;13.90;;;6.32;;
39344;SDS011;25061;51.954;6.996;2023-01-24T12:55:20;14.93;;;6.32;;
39344;SDS011;25061;51.954;6.996;2023-01-24T12:57:59;14.27;;;6.50;;
39344;SDS011;25061;51.954;6.996;2023-01-24T13:00:33;14.00;;;6.10;;
39344;SDS011;25061;51.954;6.996;2023-01-24T13:03:20;15.57;;;6.93;;
39344;SDS011;25061;51.954;6.996;2023-01-24T13:11:43;13.65;;;6.72;;
39344;SDS011;25061;51.954;6.996;2023-01-24T13:29:05;12.60;;;5.60;;
39344;SDS011;25061;51.954;6.996;2023-01-24T13:34:20;13.23;;;6.13;;
39344;SDS011;25061;51.954;6.996;2023-01-24T13:36:50;13.18;;;6.53;;
39344;SDS011;25061;51.954;6.996;2023-01-24T13:42:00;13.60;;;5.97;;
39344;SDS011;25061;51.954;6.996;2023-01-24T13:44:29;15.13;;;6.80;;
39344;SDS011;25061;51.954;6.996;2023-01-24T13:46:59;13.52;;;6.00;;
39344;SDS011;25061;51.954;6.996;2023-01-24T13:51:57;14.77;;;7.10;;
39344;SDS011;25061;51.954;6.996;2023-01-24T13:54:34;15.98;;;7.00;;
39344;SDS011;25061;51.954;6.996;2023-01-24T13:59:39;12.90;;;6.15;;
39344;SDS011;25061;51.954;6.996;2023-01-24T14:02:27;13.77;;;6.10;;
39344;SDS011;25061;51.954;6.996;2023-01-24T14:04:58;15.50;;;6.40;;
39344;SDS011;25061;51.954;6.996;2023-01-24T14:07:28;16.25;;;6.22;;
39344;SDS011;25061;51.954;6.996;2023-01-24T14:10:04;14.35;;;6.57;;
39344;SDS011;25061;51.954;6.996;2023-01-24T14:12:34;12.52;;;5.50;;
39344;SDS011;25061;51.954;6.996;2023-01-24T14:23:30;12.95;;;5.63;;
39344;SDS011;25061;51.954;6.996;2023-01-24T14:25:57;12.48;;;5.55;;
39344;SDS011;25061;51.954;6.996;2023-01-24T14:28:28;11.43;;;5.13;;
39344;SDS011;25061;51.954;6.996;2023-01-24T14:30:59;13.55;;;5.68;;
39344;SDS011;25061;51.954;6.996;2023-01-24T14:33:49;13.13;;;5.85;;
39344;SDS011;25061;51.954;6.996;2023-01-24T14:36:31;13.68;;;5.97;;
39344;SDS011;25061;51.954;6.996;2023-01-24T14:42:00;13.13;;;5.70;;
39344;SDS011;25061;51.954;6.996;2023-01-24T14:44:31;12.98;;;5.82;;
39344;SDS011;25061;51.954;6.996;2023-01-24T14:47:06;11.70;;;5.35;;
39344;SDS011;25061;51.954;6.996;2023-01-24T14:49:54;11.35;;;4.88;;
39344;SDS011;25061;51.954;6.996;2023-01-24T14:52:25;11.95;;;5.90;;
39344;SDS011;25061;51.954;6.996;2023-01-24T14:54:59;11.77;;;5.60;;
39344;SDS011;25061;51.954;6.996;2023-01-24T14:57:27;11.90;;;5.10;;
39344;SDS011;25061;51.954;6.996;2023-01-24T15:00:00;11.15;;;5.53;;
39344;SDS011;25061;51.954;6.996;2023-01-24T15:02:31;12.18;;;5.35;;
39344;SDS011;25061;51.954;6.996;2023-01-24T15:04:58;11.88;;;5.93;;
39344;SDS011;25061;51.954;6.996;2023-01-24T15:07:24;14.25;;;5.13;;
39344;SDS011;25061;51.954;6.996;2023-01-24T15:09:49;11.23;;;4.78;;
39344;SDS011;25061;51.954;6.996;2023-01-24T15:12:22;12.75;;;5.65;;
39344;SDS011;25061;51.954;6.996;2023-01-24T15:14:57;11.57;;;5.50;;
39344;SDS011;25061;51.954;6.996;2023-01-24T15:17:25;13.23;;;5.47;;
39344;SDS011;25061;51.954;6.996;2023-01-24T15:19:54;12.52;;;5.32;;
39344;SDS011;25061;51.954;6.996;2023-01-24T15:22:23;11.73;;;5.20;;
39344;SDS011;25061;51.954;6.996;2023-01-24T15:24:55;14.90;;;6.10;;
39344;SDS011;25061;51.954;6.996;2023-01-24T15:30:12;14.02;;;6.15;;
39344;SDS011;25061;51.954;6.996;2023-01-24T15:32:45;14.55;;;6.18;;
39344;SDS011;25061;51.954;6.996;2023-01-24T15:40:57;12.35;;;5.65;;
39344;SDS011;25061;51.954;6.996;2023-01-24T15:44:04;11.45;;;5.40;;
39344;SDS011;25061;51.954;6.996;2023-01-24T15:46:32;12.43;;;5.32;;
39344;SDS011;25061;51.954;6.996;2023-01-24T15:49:31;11.68;;;5.00;;
39344;SDS011;25061;51.954;6.996;2023-01-24T15:54:43;13.40;;;5.40;;
39344;SDS011;25061;51.954;6.996;2023-01-24T15:57:21;13.90;;;5.65;;
39344;SDS011;25061;51.954;6.996;2023-01-24T15:59:58;12.45;;;5.85;;
39344;SDS011;25061;51.954;6.996;2023-01-24T16:02:33;13.32;;;5.55;;
39344;SDS011;25061;51.954;6.996;2023-01-24T16:04:59;11.70;;;5.55;;
39344;SDS011;25061;51.954;6.996;2023-01-24T16:07:25;12.93;;;5.65;;
39344;SDS011;25061;51.954;6.996;2023-01-24T16:09:51;14.48;;;6.25;;
39344;SDS011;25061;51.954;6.996;2023-01-24T16:12:20;12.75;;;5.88;;
39344;SDS011;25061;51.954;6.996;2023-01-24T16:14:48;12.57;;;5.60;;
39344;SDS011;25061;51.954;6.996;2023-01-24T16:17:15;13.95;;;6.63;;
39344;SDS011;25061;51.954;6.996;2023-01-24T16:19:43;13.38;;;6.35;;
39344;SDS011;25061;51.954;6.996;2023-01-24T16:22:09;12.70;;;5.80;;
39344;SDS011;25061;51.954;6.996;2023-01-24T16:24:35;13.05;;;5.95;;
39344;SDS011;25061;51.954;6.996;2023-01-24T16:27:03;14.02;;;5.75;;
39344;SDS011;25061;51.954;6.996;2023-01-24T16:29:29;12.95;;;5.60;;
39344;SDS011;25061;51.954;6.996;2023-01-24T16:31:55;13.45;;;6.20;;
39344;SDS011;25061;51.954;6.996;2023-01-24T16:34:21;14.52;;;6.63;;
39344;SDS011;25061;51.954;6.996;2023-01-24T16:36:47;13.05;;;6.20;;
39344;SDS011;25061;51.954;6.996;2023-01-24T16:39:15;12.98;;;6.13;;
39344;SDS011;25061;51.954;6.996;2023-01-24T16:41:43;14.55;;;6.15;;
39344;SDS011;25061;51.954;6.996;2023-01-24T16:44:08;14.07;;;5.88;;
39344;SDS011;25061;51.954;6.996;2023-01-24T16:46:34;13.35;;;6.13;;